KOWB/OWB METAR and TAF weather

Enter ICAO airport designator
Station Type Date Time Source
KOWB METAR 2020/11/28 19:56 UTC NOAA

KOWB 281956Z 00000KT 10SM CLR 10/M03 A3022 RMK AO2 SLP234 T01001033


Station Type Date Time Source
KOWB Decoded METAR 2020/11/28 19:56 UTC NOAA

Owensboro, Owensboro-Daviess County Airport, KY, United States (KOWB) 37-44-24N 087-10-00W
Nov 28, 2020 - 02:56 PM EST / 2020.11.28 1956 UTC
Wind: Calm:0
Visibility: 10 mile(s):0
Sky conditions: clear
Temperature: 50.0 F (10.0 C)
Dew Point: 26.1 F (-3.3 C)
Relative Humidity: 39%
Pressure (altimeter): 30.22 in. Hg (1023 hPa)
ob: KOWB 281956Z 00000KT 10SM CLR 10/M03 A3022 RMK AO2 SLP234 T01001033
cycle: 20

Station Type Date Time Source
KOWB TAF 2020/11/28 18:30 UTC NOAA

TAF KOWB 281727Z 2818/2918 VRB03KT P6SM SKC
FM291300 09003KT P6SM BKN200

Example: see airport list